Atlanta, IL

1:01 AM CDT on May 07, 2015 (GMT -0500)
Greater Peoria Regional | | Change Station
CLOSE
Current Station
Airport
Location: Peoria,
Elevation: 663 ft
Nearby Weather Stations

Elev 663 ft 40.67 °N, 89.68 °W | Updated 7 minutes ago

Clear
Clear
72 °F
Feels Like 72 °F
N
8
Wind Variable Wind from South

Today
High -- | Low -- °F
--% Chance of Precip.
Yesterday
High -- | Low -- °F
Precip. -- in
5:49 AM 7:58 PM
Waning Gibbous, 90% visible
Pressure 30.02 in
Visibility 10.0 miles
Clouds Clear
Dew Point 54 °F
Humidity 53%
Rainfall 0.00 in
Snow Depth Not available.
UV 0 out of 12
Pollen 10.90 out of 12
Air Quality Not available.
Flu Activity Local Activity
METAR KPIA 070554Z 17007KT 10SM CLR 22/12 A3004 RMK AO2 SLP165 T02220122 10272 20222 402940156 53002

More Conditions Fewer Conditions

Pressure 30.02 in
Visibility 10.0 miles
Clouds Clear
Dew Point 54 °F
Humidity 53%
Rainfall 0.00 in
Snow Depth Not available.
UV 0 out of 12
Pollen 10.90 out of 12
Air Quality Not available.
Flu Activity Local Activity
METAR KPIA 070554Z 17007KT 10SM CLR 22/12 A3004 RMK AO2 SLP165 T02220122 10272 20222 402940156 53002

More Conditions Fewer Conditions

10-Day Weather Forecast

Almanac

Astronomy

May. 07, 2015 Rise Set
Actual Time
Civil Twilight
Nautical Twilight
Astronomical Twilight
Moon
Length of Visible Light
Length of Day
Tomorrow will be .
, % of the Moon is Illuminated

Today's Extremes

State Highs State Lows

Community

WunderPhotos

Upload Photos

1,819,126 photos uploaded!

WunderBlogs® & News

Nearby

Air Quality

  Air Quality AQ Index Pollutant
Not available.

Snow Depth

Station Depth Elevation

Earthquake Activity

City Distance Mag. Time & Date
Minimum magnitude displayed is 2.5.

Coastal Water Temperatures

Place Temperature

Stations

Nearby Weather Stations

Station Location Temp. Windchill Dew Point Humidity Wind Precip. Elev Updated Type